sensor_id;sensor_type;location;lat;lon;timestamp;P1;durP1;ratioP1;P2;durP2;ratioP2
6651;SDS011;3362;50.892;10.692;2023-04-25T00:00:14;6.88;;;2.72;;
6651;SDS011;3362;50.892;10.692;2023-04-25T00:02:40;3.47;;;2.33;;
6651;SDS011;3362;50.892;10.692;2023-04-25T00:05:07;3.53;;;2.22;;
6651;SDS011;3362;50.892;10.692;2023-04-25T00:07:35;6.15;;;2.08;;
6651;SDS011;3362;50.892;10.692;2023-04-25T00:10:02;6.68;;;2.72;;
6651;SDS011;3362;50.892;10.692;2023-04-25T00:12:28;2.83;;;2.17;;
6651;SDS011;3362;50.892;10.692;2023-04-25T00:14:55;5.72;;;2.45;;
6651;SDS011;3362;50.892;10.692;2023-04-25T00:17:22;8.90;;;2.67;;
6651;SDS011;3362;50.892;10.692;2023-04-25T00:19:49;5.50;;;2.47;;
6651;SDS011;3362;50.892;10.692;2023-04-25T00:22:15;4.10;;;2.30;;
6651;SDS011;3362;50.892;10.692;2023-04-25T00:24:43;5.63;;;2.13;;
6651;SDS011;3362;50.892;10.692;2023-04-25T00:27:09;3.30;;;2.67;;
6651;SDS011;3362;50.892;10.692;2023-04-25T00:29:36;3.95;;;2.67;;
6651;SDS011;3362;50.892;10.692;2023-04-25T00:32:02;3.40;;;2.20;;
6651;SDS011;3362;50.892;10.692;2023-04-25T00:34:28;4.35;;;2.60;;
6651;SDS011;3362;50.892;10.692;2023-04-25T00:36:54;6.60;;;2.63;;
6651;SDS011;3362;50.892;10.692;2023-04-25T00:39:21;3.72;;;2.33;;
6651;SDS011;3362;50.892;10.692;2023-04-25T00:41:49;3.67;;;2.25;;
6651;SDS011;3362;50.892;10.692;2023-04-25T00:44:18;4.65;;;2.05;;
6651;SDS011;3362;50.892;10.692;2023-04-25T00:46:44;5.43;;;3.05;;
6651;SDS011;3362;50.892;10.692;2023-04-25T00:49:12;3.83;;;2.70;;
6651;SDS011;3362;50.892;10.692;2023-04-25T00:51:41;5.45;;;2.53;;
6651;SDS011;3362;50.892;10.692;2023-04-25T00:54:08;9.82;;;2.70;;
6651;SDS011;3362;50.892;10.692;2023-04-25T00:56:35;4.93;;;2.47;;
6651;SDS011;3362;50.892;10.692;2023-04-25T00:59:02;5.97;;;2.40;;
6651;SDS011;3362;50.892;10.692;2023-04-25T01:01:29;2.13;;;1.55;;
6651;SDS011;3362;50.892;10.692;2023-04-25T01:03:56;2.95;;;1.52;;
6651;SDS011;3362;50.892;10.692;2023-04-25T01:06:24;6.53;;;2.38;;
6651;SDS011;3362;50.892;10.692;2023-04-25T01:08:50;4.60;;;2.42;;
6651;SDS011;3362;50.892;10.692;2023-04-25T01:11:17;4.32;;;2.17;;
6651;SDS011;3362;50.892;10.692;2023-04-25T01:13:43;5.07;;;2.25;;
6651;SDS011;3362;50.892;10.692;2023-04-25T01:16:11;3.28;;;2.13;;
6651;SDS011;3362;50.892;10.692;2023-04-25T01:18:38;3.10;;;2.35;;
6651;SDS011;3362;50.892;10.692;2023-04-25T01:21:08;2.67;;;1.77;;
6651;SDS011;3362;50.892;10.692;2023-04-25T01:23:34;6.10;;;1.92;;
6651;SDS011;3362;50.892;10.692;2023-04-25T01:26:01;3.88;;;2.53;;
6651;SDS011;3362;50.892;10.692;2023-04-25T01:28:27;3.67;;;1.90;;
6651;SDS011;3362;50.892;10.692;2023-04-25T01:30:54;2.65;;;2.08;;
6651;SDS011;3362;50.892;10.692;2023-04-25T01:33:20;5.05;;;2.30;;
6651;SDS011;3362;50.892;10.692;2023-04-25T01:35:47;2.90;;;2.13;;
6651;SDS011;3362;50.892;10.692;2023-04-25T01:38:14;2.83;;;1.85;;
6651;SDS011;3362;50.892;10.692;2023-04-25T01:40:41;3.83;;;2.33;;
6651;SDS011;3362;50.892;10.692;2023-04-25T01:43:07;4.65;;;2.05;;
6651;SDS011;3362;50.892;10.692;2023-04-25T01:45:36;5.35;;;2.47;;
6651;SDS011;3362;50.892;10.692;2023-04-25T01:48:04;5.30;;;2.42;;
6651;SDS011;3362;50.892;10.692;2023-04-25T01:50:30;4.57;;;2.08;;
6651;SDS011;3362;50.892;10.692;2023-04-25T01:52:56;2.88;;;2.25;;
6651;SDS011;3362;50.892;10.692;2023-04-25T01:55:24;3.20;;;2.17;;
6651;SDS011;3362;50.892;10.692;2023-04-25T01:57:50;4.25;;;2.30;;
6651;SDS011;3362;50.892;10.692;2023-04-25T02:00:17;4.20;;;2.20;;
6651;SDS011;3362;50.892;10.692;2023-04-25T02:02:43;5.03;;;2.33;;
6651;SDS011;3362;50.892;10.692;2023-04-25T02:05:09;7.72;;;1.85;;
6651;SDS011;3362;50.892;10.692;2023-04-25T02:07:35;4.28;;;2.20;;
6651;SDS011;3362;50.892;10.692;2023-04-25T02:10:02;3.08;;;2.03;;
6651;SDS011;3362;50.892;10.692;2023-04-25T02:12:30;6.70;;;2.38;;
6651;SDS011;3362;50.892;10.692;2023-04-25T02:14:56;5.55;;;2.60;;
6651;SDS011;3362;50.892;10.692;2023-04-25T02:17:23;4.82;;;2.28;;
6651;SDS011;3362;50.892;10.692;2023-04-25T02:19:49;5.32;;;2.28;;
6651;SDS011;3362;50.892;10.692;2023-04-25T02:22:15;3.50;;;2.55;;
6651;SDS011;3362;50.892;10.692;2023-04-25T02:24:42;7.13;;;2.85;;
6651;SDS011;3362;50.892;10.692;2023-04-25T02:27:08;3.05;;;1.95;;
6651;SDS011;3362;50.892;10.692;2023-04-25T02:29:36;4.35;;;2.33;;
6651;SDS011;3362;50.892;10.692;2023-04-25T02:32:02;2.28;;;1.73;;
6651;SDS011;3362;50.892;10.692;2023-04-25T02:34:28;2.75;;;1.90;;
6651;SDS011;3362;50.892;10.692;2023-04-25T02:36:55;4.05;;;1.85;;
6651;SDS011;3362;50.892;10.692;2023-04-25T02:39:21;2.90;;;2.10;;
6651;SDS011;3362;50.892;10.692;2023-04-25T02:41:50;4.63;;;2.15;;
6651;SDS011;3362;50.892;10.692;2023-04-25T02:44:16;2.75;;;2.00;;
6651;SDS011;3362;50.892;10.692;2023-04-25T02:46:43;2.42;;;1.80;;
6651;SDS011;3362;50.892;10.692;2023-04-25T02:49:10;3.92;;;1.80;;
6651;SDS011;3362;50.892;10.692;2023-04-25T02:51:36;1.67;;;1.58;;
6651;SDS011;3362;50.892;10.692;2023-04-25T02:54:02;6.20;;;2.15;;
6651;SDS011;3362;50.892;10.692;2023-04-25T02:56:28;3.88;;;2.10;;
6651;SDS011;3362;50.892;10.692;2023-04-25T02:58:55;4.43;;;1.92;;
6651;SDS011;3362;50.892;10.692;2023-04-25T03:01:21;4.32;;;2.00;;
6651;SDS011;3362;50.892;10.692;2023-04-25T03:03:48;3.55;;;2.03;;
6651;SDS011;3362;50.892;10.692;2023-04-25T03:06:15;3.85;;;2.15;;
6651;SDS011;3362;50.892;10.692;2023-04-25T03:08:41;5.25;;;2.53;;
6651;SDS011;3362;50.892;10.692;2023-04-25T03:11:07;5.28;;;2.67;;
6651;SDS011;3362;50.892;10.692;2023-04-25T03:13:34;4.63;;;2.25;;
6651;SDS011;3362;50.892;10.692;2023-04-25T03:16:00;3.20;;;2.40;;
6651;SDS011;3362;50.892;10.692;2023-04-25T03:18:26;4.82;;;2.15;;
6651;SDS011;3362;50.892;10.692;2023-04-25T03:20:54;8.48;;;2.50;;
6651;SDS011;3362;50.892;10.692;2023-04-25T03:23:20;8.52;;;2.70;;
6651;SDS011;3362;50.892;10.692;2023-04-25T03:25:46;3.88;;;2.40;;
6651;SDS011;3362;50.892;10.692;2023-04-25T03:28:13;3.58;;;2.28;;
6651;SDS011;3362;50.892;10.692;2023-04-25T03:30:39;3.65;;;2.40;;
6651;SDS011;3362;50.892;10.692;2023-04-25T03:33:05;5.18;;;3.10;;
6651;SDS011;3362;50.892;10.692;2023-04-25T03:35:31;3.97;;;2.63;;
6651;SDS011;3362;50.892;10.692;2023-04-25T03:37:59;4.18;;;2.25;;
6651;SDS011;3362;50.892;10.692;2023-04-25T03:40:25;4.43;;;2.78;;
6651;SDS011;3362;50.892;10.692;2023-04-25T03:42:51;5.90;;;2.78;;
6651;SDS011;3362;50.892;10.692;2023-04-25T03:45:17;6.35;;;3.03;;
6651;SDS011;3362;50.892;10.692;2023-04-25T03:47:43;7.53;;;3.25;;
6651;SDS011;3362;50.892;10.692;2023-04-25T03:50:10;4.97;;;3.40;;
6651;SDS011;3362;50.892;10.692;2023-04-25T03:52:36;5.35;;;3.05;;
6651;SDS011;3362;50.892;10.692;2023-04-25T03:55:04;7.15;;;3.42;;
6651;SDS011;3362;50.892;10.692;2023-04-25T03:57:30;5.88;;;2.70;;
6651;SDS011;3362;50.892;10.692;2023-04-25T03:59:56;4.70;;;3.13;;
6651;SDS011;3362;50.892;10.692;2023-04-25T04:02:23;5.07;;;2.85;;
6651;SDS011;3362;50.892;10.692;2023-04-25T04:04:49;5.28;;;2.47;;
6651;SDS011;3362;50.892;10.692;2023-04-25T04:07:15;5.43;;;2.97;;
6651;SDS011;3362;50.892;10.692;2023-04-25T04:09:41;4.07;;;2.45;;
6651;SDS011;3362;50.892;10.692;2023-04-25T04:12:09;6.10;;;2.63;;
6651;SDS011;3362;50.892;10.692;2023-04-25T04:14:35;7.22;;;2.58;;
6651;SDS011;3362;50.892;10.692;2023-04-25T04:17:01;5.85;;;3.08;;
6651;SDS011;3362;50.892;10.692;2023-04-25T04:19:27;4.55;;;2.42;;
6651;SDS011;3362;50.892;10.692;2023-04-25T04:21:54;3.72;;;2.40;;
6651;SDS011;3362;50.892;10.692;2023-04-25T04:24:20;4.63;;;2.10;;
6651;SDS011;3362;50.892;10.692;2023-04-25T04:26:46;5.20;;;2.58;;
6651;SDS011;3362;50.892;10.692;2023-04-25T04:29:14;8.23;;;2.90;;
6651;SDS011;3362;50.892;10.692;2023-04-25T04:31:45;5.07;;;2.97;;
6651;SDS011;3362;50.892;10.692;2023-04-25T04:34:12;3.50;;;2.38;;
6651;SDS011;3362;50.892;10.692;2023-04-25T04:36:38;6.80;;;2.70;;
6651;SDS011;3362;50.892;10.692;2023-04-25T04:39:06;7.32;;;2.55;;
6651;SDS011;3362;50.892;10.692;2023-04-25T04:41:34;4.03;;;2.45;;
6651;SDS011;3362;50.892;10.692;2023-04-25T04:44:00;4.25;;;2.75;;
6651;SDS011;3362;50.892;10.692;2023-04-25T04:46:29;5.13;;;2.55;;
6651;SDS011;3362;50.892;10.692;2023-04-25T04:48:56;4.22;;;2.33;;
6651;SDS011;3362;50.892;10.692;2023-04-25T04:51:23;3.35;;;2.60;;
6651;SDS011;3362;50.892;10.692;2023-04-25T04:53:50;3.33;;;2.70;;
6651;SDS011;3362;50.892;10.692;2023-04-25T04:56:16;7.72;;;2.95;;
6651;SDS011;3362;50.892;10.692;2023-04-25T04:58:42;4.97;;;2.67;;
6651;SDS011;3362;50.892;10.692;2023-04-25T05:01:09;6.63;;;2.90;;
6651;SDS011;3362;50.892;10.692;2023-04-25T05:03:37;11.90;;;3.78;;
6651;SDS011;3362;50.892;10.692;2023-04-25T05:06:03;5.88;;;2.72;;
6651;SDS011;3362;50.892;10.692;2023-04-25T05:08:30;8.50;;;2.95;;
6651;SDS011;3362;50.892;10.692;2023-04-25T05:10:56;7.45;;;2.63;;
6651;SDS011;3362;50.892;10.692;2023-04-25T05:13:22;5.55;;;2.53;;
6651;SDS011;3362;50.892;10.692;2023-04-25T05:15:48;4.65;;;2.05;;
6651;SDS011;3362;50.892;10.692;2023-04-25T05:18:15;3.10;;;2.17;;
6651;SDS011;3362;50.892;10.692;2023-04-25T05:20:42;6.43;;;2.50;;
6651;SDS011;3362;50.892;10.692;2023-04-25T05:23:08;7.13;;;2.60;;
6651;SDS011;3362;50.892;10.692;2023-04-25T05:25:35;2.63;;;2.05;;
6651;SDS011;3362;50.892;10.692;2023-04-25T05:28:01;4.32;;;2.58;;
6651;SDS011;3362;50.892;10.692;2023-04-25T05:30:27;2.83;;;1.98;;
6651;SDS011;3362;50.892;10.692;2023-04-25T05:32:53;3.63;;;2.25;;
6651;SDS011;3362;50.892;10.692;2023-04-25T05:35:19;4.43;;;2.63;;
6651;SDS011;3362;50.892;10.692;2023-04-25T05:37:47;6.35;;;2.40;;
6651;SDS011;3362;50.892;10.692;2023-04-25T05:40:13;3.85;;;2.30;;
6651;SDS011;3362;50.892;10.692;2023-04-25T05:42:40;3.15;;;1.88;;
6651;SDS011;3362;50.892;10.692;2023-04-25T05:45:06;7.07;;;2.47;;
6651;SDS011;3362;50.892;10.692;2023-04-25T05:47:32;2.67;;;1.88;;
6651;SDS011;3362;50.892;10.692;2023-04-25T05:49:59;3.85;;;1.92;;
6651;SDS011;3362;50.892;10.692;2023-04-25T05:52:25;3.72;;;2.03;;
6651;SDS011;3362;50.892;10.692;2023-04-25T05:54:52;4.68;;;2.05;;
6651;SDS011;3362;50.892;10.692;2023-04-25T05:57:19;2.58;;;1.90;;
6651;SDS011;3362;50.892;10.692;2023-04-25T05:59:46;5.35;;;1.88;;
6651;SDS011;3362;50.892;10.692;2023-04-25T06:02:12;5.80;;;2.22;;
6651;SDS011;3362;50.892;10.692;2023-04-25T06:04:38;2.45;;;1.70;;
6651;SDS011;3362;50.892;10.692;2023-04-25T06:07:04;4.82;;;2.10;;
6651;SDS011;3362;50.892;10.692;2023-04-25T06:09:31;2.05;;;1.33;;
6651;SDS011;3362;50.892;10.692;2023-04-25T06:11:58;5.30;;;2.15;;
6651;SDS011;3362;50.892;10.692;2023-04-25T06:14:24;3.55;;;1.70;;
6651;SDS011;3362;50.892;10.692;2023-04-25T06:16:51;4.90;;;1.73;;
6651;SDS011;3362;50.892;10.692;2023-04-25T06:19:17;4.70;;;2.47;;
6651;SDS011;3362;50.892;10.692;2023-04-25T06:21:43;4.65;;;1.92;;
6651;SDS011;3362;50.892;10.692;2023-04-25T06:24:10;3.63;;;2.00;;
6651;SDS011;3362;50.892;10.692;2023-04-25T06:26:36;5.68;;;2.00;;
6651;SDS011;3362;50.892;10.692;2023-04-25T06:29:03;6.85;;;1.95;;
6651;SDS011;3362;50.892;10.692;2023-04-25T06:31:30;2.25;;;1.65;;
6651;SDS011;3362;50.892;10.692;2023-04-25T06:33:57;3.28;;;1.77;;
6651;SDS011;3362;50.892;10.692;2023-04-25T06:36:23;1.90;;;1.45;;
6651;SDS011;3362;50.892;10.692;2023-04-25T06:38:51;7.03;;;1.80;;
6651;SDS011;3362;50.892;10.692;2023-04-25T06:41:17;1.58;;;1.17;;
6651;SDS011;3362;50.892;10.692;2023-04-25T06:43:43;1.75;;;1.38;;
6651;SDS011;3362;50.892;10.692;2023-04-25T06:46:11;2.58;;;1.65;;
6651;SDS011;3362;50.892;10.692;2023-04-25T06:48:37;3.85;;;1.58;;
6651;SDS011;3362;50.892;10.692;2023-04-25T06:51:03;2.17;;;1.55;;
6651;SDS011;3362;50.892;10.692;2023-04-25T06:53:30;1.15;;;1.00;;
6651;SDS011;3362;50.892;10.692;2023-04-25T06:55:56;3.80;;;1.90;;
6651;SDS011;3362;50.892;10.692;2023-04-25T06:58:22;2.95;;;1.58;;
6651;SDS011;3362;50.892;10.692;2023-04-25T07:00:48;2.15;;;1.25;;
6651;SDS011;3362;50.892;10.692;2023-04-25T07:03:16;3.75;;;1.88;;
6651;SDS011;3362;50.892;10.692;2023-04-25T07:05:42;4.63;;;2.00;;
6651;SDS011;3362;50.892;10.692;2023-04-25T07:08:10;1.65;;;1.48;;
6651;SDS011;3362;50.892;10.692;2023-04-25T07:10:36;5.03;;;2.42;;
6651;SDS011;3362;50.892;10.692;2023-04-25T07:13:03;2.05;;;1.15;;
6651;SDS011;3362;50.892;10.692;2023-04-25T07:15:29;1.35;;;1.00;;
6651;SDS011;3362;50.892;10.692;2023-04-25T07:17:55;3.28;;;1.35;;
6651;SDS011;3362;50.892;10.692;2023-04-25T07:20:23;2.53;;;1.42;;
6651;SDS011;3362;50.892;10.692;2023-04-25T07:22:49;2.63;;;1.52;;
6651;SDS011;3362;50.892;10.692;2023-04-25T07:25:16;3.53;;;2.17;;
6651;SDS011;3362;50.892;10.692;2023-04-25T07:27:42;4.97;;;1.73;;
6651;SDS011;3362;50.892;10.692;2023-04-25T07:30:08;2.80;;;1.85;;
6651;SDS011;3362;50.892;10.692;2023-04-25T07:32:35;5.75;;;1.73;;
6651;SDS011;3362;50.892;10.692;2023-04-25T07:35:01;4.38;;;1.48;;
6651;SDS011;3362;50.892;10.692;2023-04-25T07:37:29;3.00;;;1.55;;
6651;SDS011;3362;50.892;10.692;2023-04-25T07:39:55;3.13;;;1.50;;
6651;SDS011;3362;50.892;10.692;2023-04-25T07:42:22;3.10;;;1.60;;
6651;SDS011;3362;50.892;10.692;2023-04-25T07:44:48;4.50;;;1.45;;
6651;SDS011;3362;50.892;10.692;2023-04-25T07:47:15;3.85;;;1.63;;
6651;SDS011;3362;50.892;10.692;2023-04-25T07:49:41;3.08;;;1.42;;
6651;SDS011;3362;50.892;10.692;2023-04-25T07:52:07;1.75;;;1.40;;
6651;SDS011;3362;50.892;10.692;2023-04-25T07:54:35;3.10;;;1.55;;
6651;SDS011;3362;50.892;10.692;2023-04-25T07:57:01;3.63;;;2.10;;
6651;SDS011;3362;50.892;10.692;2023-04-25T07:59:28;2.80;;;1.67;;
6651;SDS011;3362;50.892;10.692;2023-04-25T08:01:54;3.38;;;1.63;;
6651;SDS011;3362;50.892;10.692;2023-04-25T08:04:22;3.60;;;1.95;;
6651;SDS011;3362;50.892;10.692;2023-04-25T08:06:48;1.42;;;1.33;;
6651;SDS011;3362;50.892;10.692;2023-04-25T08:09:15;4.82;;;2.17;;
6651;SDS011;3362;50.892;10.692;2023-04-25T08:11:43;4.05;;;1.67;;
6651;SDS011;3362;50.892;10.692;2023-04-25T08:14:09;6.13;;;1.70;;
6651;SDS011;3362;50.892;10.692;2023-04-25T08:16:35;2.38;;;1.55;;
6651;SDS011;3362;50.892;10.692;2023-04-25T08:19:01;4.10;;;1.55;;
6651;SDS011;3362;50.892;10.692;2023-04-25T08:21:28;2.55;;;1.67;;
6651;SDS011;3362;50.892;10.692;2023-04-25T08:23:54;3.28;;;2.03;;
6651;SDS011;3362;50.892;10.692;2023-04-25T08:26:21;4.22;;;1.70;;
6651;SDS011;3362;50.892;10.692;2023-04-25T08:28:49;3.55;;;1.80;;
6651;SDS011;3362;50.892;10.692;2023-04-25T08:31:15;3.83;;;1.73;;
6651;SDS011;3362;50.892;10.692;2023-04-25T08:33:41;3.72;;;2.05;;
6651;SDS011;3362;50.892;10.692;2023-04-25T08:36:07;6.38;;;1.95;;
6651;SDS011;3362;50.892;10.692;2023-04-25T08:38:34;2.38;;;1.98;;
6651;SDS011;3362;50.892;10.692;2023-04-25T08:41:01;3.10;;;2.03;;
6651;SDS011;3362;50.892;10.692;2023-04-25T08:43:28;3.72;;;2.03;;
6651;SDS011;3362;50.892;10.692;2023-04-25T08:45:57;4.97;;;2.13;;
6651;SDS011;3362;50.892;10.692;2023-04-25T08:48:24;3.00;;;2.03;;
6651;SDS011;3362;50.892;10.692;2023-04-25T08:50:53;4.13;;;1.75;;
6651;SDS011;3362;50.892;10.692;2023-04-25T08:53:21;3.22;;;1.80;;
6651;SDS011;3362;50.892;10.692;2023-04-25T08:55:47;2.67;;;1.83;;
6651;SDS011;3362;50.892;10.692;2023-04-25T08:58:14;2.22;;;1.67;;
6651;SDS011;3362;50.892;10.692;2023-04-25T09:00:41;1.52;;;1.30;;
6651;SDS011;3362;50.892;10.692;2023-04-25T09:03:08;3.08;;;1.67;;
6651;SDS011;3362;50.892;10.692;2023-04-25T09:05:34;2.33;;;1.50;;
6651;SDS011;3362;50.892;10.692;2023-04-25T09:08:01;1.73;;;1.30;;
6651;SDS011;3362;50.892;10.692;2023-04-25T09:10:27;2.53;;;1.65;;
6651;SDS011;3362;50.892;10.692;2023-04-25T09:13:03;2.92;;;1.67;;
6651;SDS011;3362;50.892;10.692;2023-04-25T09:15:31;4.10;;;1.90;;
6651;SDS011;3362;50.892;10.692;2023-04-25T09:17:57;3.97;;;1.58;;
6651;SDS011;3362;50.892;10.692;2023-04-25T09:20:25;3.30;;;2.05;;
6651;SDS011;3362;50.892;10.692;2023-04-25T09:23:00;2.30;;;1.20;;
6651;SDS011;3362;50.892;10.692;2023-04-25T09:25:27;1.38;;;1.27;;
6651;SDS011;3362;50.892;10.692;2023-04-25T09:27:59;5.30;;;2.17;;
6651;SDS011;3362;50.892;10.692;2023-04-25T09:30:29;4.40;;;1.60;;
6651;SDS011;3362;50.892;10.692;2023-04-25T09:32:56;2.90;;;1.23;;
6651;SDS011;3362;50.892;10.692;2023-04-25T09:35:27;3.67;;;1.67;;
6651;SDS011;3362;50.892;10.692;2023-04-25T09:37:53;1.85;;;1.27;;
6651;SDS011;3362;50.892;10.692;2023-04-25T09:40:19;3.03;;;1.23;;
6651;SDS011;3362;50.892;10.692;2023-04-25T09:42:46;4.10;;;1.35;;
6651;SDS011;3362;50.892;10.692;2023-04-25T09:45:12;3.58;;;1.45;;
6651;SDS011;3362;50.892;10.692;2023-04-25T09:47:40;3.58;;;1.42;;
6651;SDS011;3362;50.892;10.692;2023-04-25T09:50:13;6.85;;;1.38;;
6651;SDS011;3362;50.892;10.692;2023-04-25T09:52:41;2.17;;;1.20;;
6651;SDS011;3362;50.892;10.692;2023-04-25T09:55:07;5.32;;;1.35;;
6651;SDS011;3362;50.892;10.692;2023-04-25T09:57:34;4.72;;;1.42;;
6651;SDS011;3362;50.892;10.692;2023-04-25T10:00:05;2.60;;;1.38;;
6651;SDS011;3362;50.892;10.692;2023-04-25T10:02:37;5.00;;;1.48;;
6651;SDS011;3362;50.892;10.692;2023-04-25T10:05:05;4.70;;;1.52;;
6651;SDS011;3362;50.892;10.692;2023-04-25T10:07:32;4.28;;;1.60;;
6651;SDS011;3362;50.892;10.692;2023-04-25T10:10:01;3.90;;;1.80;;
6651;SDS011;3362;50.892;10.692;2023-04-25T10:12:28;5.68;;;2.22;;
6651;SDS011;3362;50.892;10.692;2023-04-25T10:14:55;2.40;;;1.15;;
6651;SDS011;3362;50.892;10.692;2023-04-25T10:17:23;3.92;;;1.15;;
6651;SDS011;3362;50.892;10.692;2023-04-25T10:19:50;2.47;;;1.38;;
6651;SDS011;3362;50.892;10.692;2023-04-25T10:22:17;9.38;;;1.70;;
6651;SDS011;3362;50.892;10.692;2023-04-25T10:24:44;3.70;;;1.60;;
6651;SDS011;3362;50.892;10.692;2023-04-25T10:27:13;3.30;;;1.23;;
6651;SDS011;3362;50.892;10.692;2023-04-25T10:29:40;5.05;;;1.88;;
6651;SDS011;3362;50.892;10.692;2023-04-25T10:32:08;4.20;;;1.40;;
6651;SDS011;3362;50.892;10.692;2023-04-25T10:34:38;8.45;;;1.67;;
6651;SDS011;3362;50.892;10.692;2023-04-25T10:37:05;1.67;;;1.13;;
6651;SDS011;3362;50.892;10.692;2023-04-25T10:39:34;5.13;;;1.30;;
6651;SDS011;3362;50.892;10.692;2023-04-25T10:42:01;6.03;;;1.25;;
6651;SDS011;3362;50.892;10.692;2023-04-25T10:44:29;5.65;;;1.73;;
6651;SDS011;3362;50.892;10.692;2023-04-25T10:46:56;5.53;;;1.90;;
6651;SDS011;3362;50.892;10.692;2023-04-25T10:49:29;6.18;;;1.80;;
6651;SDS011;3362;50.892;10.692;2023-04-25T10:52:12;8.88;;;1.38;;
6651;SDS011;3362;50.892;10.692;2023-04-25T10:54:42;5.00;;;1.58;;
6651;SDS011;3362;50.892;10.692;2023-04-25T10:59:51;5.28;;;1.40;;
6651;SDS011;3362;50.892;10.692;2023-04-25T11:02:17;6.35;;;1.88;;
6651;SDS011;3362;50.892;10.692;2023-04-25T11:04:44;10.95;;;2.00;;
6651;SDS011;3362;50.892;10.692;2023-04-25T11:07:10;1.77;;;1.33;;
6651;SDS011;3362;50.892;10.692;2023-04-25T11:09:39;3.45;;;1.55;;
6651;SDS011;3362;50.892;10.692;2023-04-25T11:12:07;4.68;;;1.30;;
6651;SDS011;3362;50.892;10.692;2023-04-25T11:14:33;5.32;;;1.45;;
6651;SDS011;3362;50.892;10.692;2023-04-25T11:17:01;4.63;;;1.52;;
6651;SDS011;3362;50.892;10.692;2023-04-25T11:19:28;2.60;;;1.50;;
6651;SDS011;3362;50.892;10.692;2023-04-25T11:21:54;4.80;;;1.52;;
6651;SDS011;3362;50.892;10.692;2023-04-25T11:24:25;6.13;;;1.85;;
6651;SDS011;3362;50.892;10.692;2023-04-25T11:26:51;11.00;;;1.85;;
6651;SDS011;3362;50.892;10.692;2023-04-25T11:29:17;4.53;;;1.45;;
6651;SDS011;3362;50.892;10.692;2023-04-25T11:31:44;7.20;;;1.27;;
6651;SDS011;3362;50.892;10.692;2023-04-25T11:34:12;7.50;;;1.67;;
6651;SDS011;3362;50.892;10.692;2023-04-25T11:36:42;3.05;;;1.20;;
6651;SDS011;3362;50.892;10.692;2023-04-25T11:39:08;6.30;;;1.95;;
6651;SDS011;3362;50.892;10.692;2023-04-25T11:41:35;3.10;;;1.17;;
6651;SDS011;3362;50.892;10.692;2023-04-25T11:44:03;5.78;;;1.52;;
6651;SDS011;3362;50.892;10.692;2023-04-25T11:46:29;5.43;;;1.42;;
6651;SDS011;3362;50.892;10.692;2023-04-25T11:48:55;2.35;;;1.23;;
6651;SDS011;3362;50.892;10.692;2023-04-25T11:51:23;5.50;;;1.40;;
6651;SDS011;3362;50.892;10.692;2023-04-25T11:53:50;3.92;;;1.05;;
6651;SDS011;3362;50.892;10.692;2023-04-25T11:56:16;2.47;;;1.02;;
6651;SDS011;3362;50.892;10.692;2023-04-25T11:58:56;6.57;;;1.48;;
6651;SDS011;3362;50.892;10.692;2023-04-25T12:01:26;6.53;;;1.73;;
6651;SDS011;3362;50.892;10.692;2023-04-25T12:03:52;5.55;;;1.30;;
6651;SDS011;3362;50.892;10.692;2023-04-25T12:06:18;1.98;;;1.20;;
6651;SDS011;3362;50.892;10.692;2023-04-25T12:08:59;6.20;;;1.55;;
6651;SDS011;3362;50.892;10.692;2023-04-25T12:11:26;4.70;;;1.50;;
6651;SDS011;3362;50.892;10.692;2023-04-25T12:13:52;7.05;;;1.67;;
6651;SDS011;3362;50.892;10.692;2023-04-25T12:16:18;2.40;;;1.33;;
6651;SDS011;3362;50.892;10.692;2023-04-25T12:18:45;4.85;;;1.38;;
6651;SDS011;3362;50.892;10.692;2023-04-25T12:21:11;9.15;;;2.97;;
6651;SDS011;3362;50.892;10.692;2023-04-25T12:23:38;7.85;;;1.05;;
6651;SDS011;3362;50.892;10.692;2023-04-25T12:26:05;7.82;;;1.40;;
6651;SDS011;3362;50.892;10.692;2023-04-25T12:28:32;9.15;;;1.33;;
6651;SDS011;3362;50.892;10.692;2023-04-25T12:30:59;3.42;;;1.38;;
6651;SDS011;3362;50.892;10.692;2023-04-25T12:33:27;3.83;;;1.13;;
6651;SDS011;3362;50.892;10.692;2023-04-25T12:35:54;3.45;;;1.00;;
6651;SDS011;3362;50.892;10.692;2023-04-25T12:38:21;6.03;;;1.35;;
6651;SDS011;3362;50.892;10.692;2023-04-25T12:40:47;5.00;;;1.10;;
6651;SDS011;3362;50.892;10.692;2023-04-25T12:43:15;1.08;;;0.93;;
6651;SDS011;3362;50.892;10.692;2023-04-25T12:45:41;2.13;;;1.23;;
6651;SDS011;3362;50.892;10.692;2023-04-25T12:48:07;7.20;;;1.48;;
6651;SDS011;3362;50.892;10.692;2023-04-25T12:50:34;2.67;;;1.35;;
6651;SDS011;3362;50.892;10.692;2023-04-25T12:53:00;6.70;;;1.80;;
6651;SDS011;3362;50.892;10.692;2023-04-25T12:55:26;6.07;;;1.08;;
6651;SDS011;3362;50.892;10.692;2023-04-25T12:57:53;2.72;;;1.20;;
6651;SDS011;3362;50.892;10.692;2023-04-25T13:00:20;4.45;;;1.20;;
6651;SDS011;3362;50.892;10.692;2023-04-25T13:02:46;4.57;;;1.50;;
6651;SDS011;3362;50.892;10.692;2023-04-25T13:05:13;4.30;;;1.27;;
6651;SDS011;3362;50.892;10.692;2023-04-25T13:07:39;3.42;;;1.13;;
6651;SDS011;3362;50.892;10.692;2023-04-25T13:10:06;4.28;;;0.95;;
6651;SDS011;3362;50.892;10.692;2023-04-25T13:12:32;2.25;;;1.17;;
6651;SDS011;3362;50.892;10.692;2023-04-25T13:14:59;4.10;;;1.02;;
6651;SDS011;3362;50.892;10.692;2023-04-25T13:17:26;3.30;;;1.00;;
6651;SDS011;3362;50.892;10.692;2023-04-25T13:19:52;6.57;;;1.30;;
6651;SDS011;3362;50.892;10.692;2023-04-25T13:22:19;6.15;;;1.25;;
6651;SDS011;3362;50.892;10.692;2023-04-25T13:24:45;5.78;;;1.45;;
6651;SDS011;3362;50.892;10.692;2023-04-25T13:27:11;4.25;;;1.35;;
6651;SDS011;3362;50.892;10.692;2023-04-25T13:29:38;5.50;;;1.17;;
6651;SDS011;3362;50.892;10.692;2023-04-25T13:32:05;4.15;;;0.88;;
6651;SDS011;3362;50.892;10.692;2023-04-25T13:34:33;3.53;;;1.35;;
6651;SDS011;3362;50.892;10.692;2023-04-25T13:36:59;4.60;;;1.13;;
6651;SDS011;3362;50.892;10.692;2023-04-25T13:39:25;4.40;;;1.20;;
6651;SDS011;3362;50.892;10.692;2023-04-25T13:41:51;5.25;;;1.10;;
6651;SDS011;3362;50.892;10.692;2023-04-25T13:44:17;4.13;;;1.33;;
6651;SDS011;3362;50.892;10.692;2023-04-25T13:46:44;3.63;;;1.30;;
6651;SDS011;3362;50.892;10.692;2023-04-25T13:49:11;3.20;;;0.75;;
6651;SDS011;3362;50.892;10.692;2023-04-25T13:51:38;6.78;;;1.05;;
6651;SDS011;3362;50.892;10.692;2023-04-25T13:54:05;5.22;;;1.35;;
6651;SDS011;3362;50.892;10.692;2023-04-25T13:56:31;4.25;;;0.93;;
6651;SDS011;3362;50.892;10.692;2023-04-25T13:58:57;13.20;;;1.70;;
6651;SDS011;3362;50.892;10.692;2023-04-25T14:01:23;3.88;;;0.90;;
6651;SDS011;3362;50.892;10.692;2023-04-25T14:03:50;4.32;;;1.23;;
6651;SDS011;3362;50.892;10.692;2023-04-25T14:06:16;5.22;;;1.13;;
6651;SDS011;3362;50.892;10.692;2023-04-25T14:08:49;2.53;;;1.10;;
6651;SDS011;3362;50.892;10.692;2023-04-25T14:11:15;2.80;;;1.30;;
6651;SDS011;3362;50.892;10.692;2023-04-25T14:13:42;3.30;;;1.02;;
6651;SDS011;3362;50.892;10.692;2023-04-25T14:16:09;1.75;;;0.93;;
6651;SDS011;3362;50.892;10.692;2023-04-25T14:18:35;3.25;;;1.30;;
6651;SDS011;3362;50.892;10.692;2023-04-25T14:21:01;2.95;;;1.48;;
6651;SDS011;3362;50.892;10.692;2023-04-25T14:23:27;2.20;;;1.48;;
6651;SDS011;3362;50.892;10.692;2023-04-25T14:25:55;5.20;;;1.45;;
6651;SDS011;3362;50.892;10.692;2023-04-25T14:28:21;4.05;;;2.20;;
6651;SDS011;3362;50.892;10.692;2023-04-25T14:30:47;2.80;;;1.35;;
6651;SDS011;3362;50.892;10.692;2023-04-25T14:33:14;3.42;;;1.50;;
6651;SDS011;3362;50.892;10.692;2023-04-25T14:35:40;1.15;;;0.80;;
6651;SDS011;3362;50.892;10.692;2023-04-25T14:38:06;2.85;;;1.20;;
6651;SDS011;3362;50.892;10.692;2023-04-25T14:40:32;1.67;;;1.00;;
6651;SDS011;3362;50.892;10.692;2023-04-25T14:43:00;2.92;;;1.10;;
6651;SDS011;3362;50.892;10.692;2023-04-25T14:45:26;5.30;;;1.45;;
6651;SDS011;3362;50.892;10.692;2023-04-25T14:47:52;2.10;;;1.40;;
6651;SDS011;3362;50.892;10.692;2023-04-25T14:50:18;2.90;;;1.25;;
6651;SDS011;3362;50.892;10.692;2023-04-25T14:52:45;3.60;;;1.08;;
6651;SDS011;3362;50.892;10.692;2023-04-25T14:55:11;2.17;;;1.30;;
6651;SDS011;3362;50.892;10.692;2023-04-25T14:57:38;1.98;;;0.80;;
6651;SDS011;3362;50.892;10.692;2023-04-25T15:00:06;4.78;;;1.10;;